Time;durP1;ratioP1;P1;durP2;ratioP2;P2;SDS_P1;SDS_P2;PMS_P1;PMS_P2;Temp;Humidity;BMP_temperature;BMP_pressure;BME280_temperature;BME280_humidity;BME280_pressure;Samples;Min_cycle;Max_cycle;Signal;HPM_P1;HPM_P2
2020/12/22 00:01:47;;;;;;;1.45;0.80;;;;;;;;;;5079153;28;20080;-77
2020/12/22 00:04:13;;;;;;;0.80;0.80;;;;;;;;;;5079651;28;20024;-76
2020/12/22 00:06:39;;;;;;;2.83;1.65;;;;;;;;;;5079573;28;20032;-78
2020/12/22 00:09:05;;;;;;;1.58;1.10;;;;;;;;;;5079252;28;20044;-80
2020/12/22 00:11:32;;;;;;;1.10;0.82;;;;;;;;;;5079441;28;20032;-79
2020/12/22 00:13:58;;;;;;;1.08;0.82;;;;;;;;;;5079140;28;20028;-80
2020/12/22 00:16:24;;;;;;;2.80;1.02;;;;;;;;;;5079383;28;20030;-79
2020/12/22 00:18:49;;;;;;;1.20;1.08;;;;;;;;;;5079121;28;20050;-80
2020/12/22 00:21:19;;;;;;;1.30;0.85;;;;;;;;;;5079448;28;20028;-79
2020/12/22 00:23:45;;;;;;;1.10;1.00;;;;;;;;;;5079331;28;20036;-79
2020/12/22 00:26:15;;;;;;;0.80;0.65;;;;;;;;;;5079489;28;20343;-76
2020/12/22 00:28:41;;;;;;;0.80;0.80;;;;;;;;;;5096886;28;20059;-79
2020/12/22 00:31:07;;;;;;;0.60;0.60;;;;;;;;;;5079007;28;20135;-78
2020/12/22 00:33:33;;;;;;;0.80;0.80;;;;;;;;;;5079245;28;20131;-81
2020/12/22 00:36:00;;;;;;;0.90;0.75;;;;;;;;;;5079413;28;20113;-79
2020/12/22 00:38:25;;;;;;;0.85;0.85;;;;;;;;;;5096529;28;20473;-79
2020/12/22 00:40:51;;;;;;;1.83;0.73;;;;;;;;;;5078582;28;20059;-80
2020/12/22 00:43:17;;;;;;;0.73;0.70;;;;;;;;;;5079017;28;20055;-76
2020/12/22 00:45:43;;;;;;;1.48;0.90;;;;;;;;;;5078660;28;20024;-78
2020/12/22 00:48:09;;;;;;;0.82;0.80;;;;;;;;;;5078763;28;20035;-77
2020/12/22 00:50:35;;;;;;;1.17;0.90;;;;;;;;;;5079130;28;20118;-79
2020/12/22 00:53:01;;;;;;;1.23;0.95;;;;;;;;;;5078494;28;20077;-77
2020/12/22 00:55:27;;;;;;;0.60;0.60;;;;;;;;;;5078525;28;20032;-79
2020/12/22 00:57:53;;;;;;;0.55;0.55;;;;;;;;;;5078535;28;20043;-79
2020/12/22 01:00:21;;;;;;;1.45;1.10;;;;;;;;;;5078998;28;20067;-79
2020/12/22 01:02:47;;;;;;;0.93;0.82;;;;;;;;;;5096370;28;20024;-80
2020/12/22 01:05:13;;;;;;;0.80;0.80;;;;;;;;;;5078441;28;20028;-80
2020/12/22 01:07:39;;;;;;;1.00;0.77;;;;;;;;;;5079052;28;20035;-80
2020/12/22 01:10:05;;;;;;;0.90;0.80;;;;;;;;;;5078552;28;20081;-78
2020/12/22 01:12:31;;;;;;;0.80;0.75;;;;;;;;;;5078402;28;20028;-79
2020/12/22 01:14:57;;;;;;;1.30;0.85;;;;;;;;;;5096614;28;20035;-80
2020/12/22 01:17:23;;;;;;;1.30;0.90;;;;;;;;;;5078516;28;20127;-77
2020/12/22 01:19:49;;;;;;;1.05;0.75;;;;;;;;;;5078724;28;20331;-78
2020/12/22 01:22:15;;;;;;;0.70;0.70;;;;;;;;;;5078671;28;20028;-74
2020/12/22 01:24:41;;;;;;;1.00;0.80;;;;;;;;;;5096540;28;20039;-74
2020/12/22 01:27:07;;;;;;;1.25;1.05;;;;;;;;;;5078265;28;20074;-78
2020/12/22 01:29:33;;;;;;;1.20;0.75;;;;;;;;;;5087046;28;20051;-79
2020/12/22 01:31:59;;;;;;;0.60;0.60;;;;;;;;;;5112452;28;20038;-77
2020/12/22 01:34:25;;;;;;;0.90;0.90;;;;;;;;;;5081329;28;20032;-77
2020/12/22 01:36:51;;;;;;;0.98;0.80;;;;;;;;;;5078265;28;20024;-79
2020/12/22 01:39:17;;;;;;;1.15;0.95;;;;;;;;;;5096111;28;20058;-79
2020/12/22 01:41:44;;;;;;;1.27;0.90;;;;;;;;;;5077916;28;20126;-79
2020/12/22 01:44:11;;;;;;;0.70;0.70;;;;;;;;;;5078004;28;20038;-78
2020/12/22 01:46:50;;;;;;;0.75;0.50;;;;;;;;;;5077981;28;20028;-79
2020/12/22 01:49:26;;;;;;;1.05;0.70;;;;;;;;;;5095988;28;20042;-77
2020/12/22 01:51:53;;;;;;;1.15;0.65;;;;;;;;;;5095679;28;20336;-78
2020/12/22 01:54:19;;;;;;;0.50;0.50;;;;;;;;;;5095352;28;20027;-79
2020/12/22 01:56:46;;;;;;;0.70;0.55;;;;;;;;;;5078564;28;20331;-77
2020/12/22 01:59:12;;;;;;;0.57;0.57;;;;;;;;;;5081030;28;20069;-79
2020/12/22 02:01:38;;;;;;;0.70;0.70;;;;;;;;;;5081433;28;20064;-80
2020/12/22 02:04:06;;;;;;;0.63;0.63;;;;;;;;;;5098780;28;20783;-76
2020/12/22 02:06:32;;;;;;;0.50;0.50;;;;;;;;;;5081014;28;20032;-78
2020/12/22 02:08:59;;;;;;;1.25;0.82;;;;;;;;;;5081325;28;20035;-80
2020/12/22 02:11:25;;;;;;;1.35;0.80;;;;;;;;;;5099046;28;20070;-76
2020/12/22 02:13:52;;;;;;;0.77;0.70;;;;;;;;;;5081279;28;20127;-78
2020/12/22 02:16:19;;;;;;;0.60;0.50;;;;;;;;;;5081311;28;20032;-77
2020/12/22 02:18:45;;;;;;;0.88;0.80;;;;;;;;;;5081591;28;20036;-78
2020/12/22 02:21:11;;;;;;;0.52;0.52;;;;;;;;;;5099004;28;20039;-79
2020/12/22 02:23:37;;;;;;;1.05;0.70;;;;;;;;;;5098694;28;20024;-78
2020/12/22 02:26:03;;;;;;;0.68;0.57;;;;;;;;;;5098587;28;20100;-78
2020/12/22 02:28:30;;;;;;;0.75;0.60;;;;;;;;;;5081153;28;20050;-77
2020/12/22 02:30:56;;;;;;;0.63;0.60;;;;;;;;;;5080789;28;20027;-78
2020/12/22 02:33:22;;;;;;;0.70;0.60;;;;;;;;;;5060698;28;20415;-76
2020/12/22 02:35:47;;;;;;;0.60;0.60;;;;;;;;;;5059976;28;20031;-80
2020/12/22 02:38:16;;;;;;;0.68;0.60;;;;;;;;;;5059856;28;20262;-79
2020/12/22 02:40:42;;;;;;;0.60;0.60;;;;;;;;;;5077776;28;20054;-80
2020/12/22 02:43:10;;;;;;;0.85;0.70;;;;;;;;;;5059599;28;20472;-78
2020/12/22 02:45:36;;;;;;;1.27;0.70;;;;;;;;;;5059892;28;20064;-76
2020/12/22 02:48:02;;;;;;;0.75;0.70;;;;;;;;;;5059954;28;20374;-77
2020/12/22 02:50:28;;;;;;;0.60;0.60;;;;;;;;;;5060261;28;20077;-76
2020/12/22 02:52:54;;;;;;;0.60;0.60;;;;;;;;;;5060669;28;20067;-77
2020/12/22 02:55:20;;;;;;;0.70;0.70;;;;;;;;;;5060671;28;20056;-80
2020/12/22 02:57:46;;;;;;;0.40;0.40;;;;;;;;;;5060330;28;20313;-78
2020/12/22 03:03:15;;;;;;;0.63;0.63;;;;;;;;;;5077796;28;20051;-78
2020/12/22 03:05:41;;;;;;;0.40;0.40;;;;;;;;;;5060124;28;20036;-79
2020/12/22 03:08:11;;;;;;;0.60;0.60;;;;;;;;;;5059826;28;20105;-79
2020/12/22 03:10:37;;;;;;;0.50;0.50;;;;;;;;;;5060394;28;20025;-75
2020/12/22 03:13:03;;;;;;;0.52;0.52;;;;;;;;;;5060323;28;20036;-75
2020/12/22 03:15:29;;;;;;;0.73;0.52;;;;;;;;;;5060166;28;20035;-79
2020/12/22 03:17:55;;;;;;;0.80;0.60;;;;;;;;;;5059824;28;20450;-79
2020/12/22 03:20:24;;;;;;;1.00;0.90;;;;;;;;;;5060350;28;20036;-77
2020/12/22 03:22:50;;;;;;;0.60;0.60;;;;;;;;;;5084871;28;20016;-77
2020/12/22 03:25:16;;;;;;;0.80;0.60;;;;;;;;;;5093979;28;20035;-76
2020/12/22 03:27:42;;;;;;;0.60;0.47;;;;;;;;;;5062575;28;20441;-77
2020/12/22 03:30:09;;;;;;;0.70;0.60;;;;;;;;;;5077977;28;20063;-79
2020/12/22 03:32:35;;;;;;;0.75;0.50;;;;;;;;;;5060830;28;20037;-80
2020/12/22 03:35:01;;;;;;;0.50;0.50;;;;;;;;;;5060786;28;20344;-78
2020/12/22 03:37:27;;;;;;;0.80;0.52;;;;;;;;;;5060661;28;20029;-77
2020/12/22 03:39:55;;;;;;;0.45;0.45;;;;;;;;;;5059114;28;20031;-76
2020/12/22 03:42:21;;;;;;;0.70;0.60;;;;;;;;;;5058883;28;20127;-80
2020/12/22 03:44:48;;;;;;;0.95;0.50;;;;;;;;;;5058540;28;20091;-78
2020/12/22 03:47:14;;;;;;;0.60;0.60;;;;;;;;;;5058027;28;20033;-77
2020/12/22 03:49:40;;;;;;;0.50;0.47;;;;;;;;;;5058209;28;20444;-77
2020/12/22 03:52:07;;;;;;;0.60;0.60;;;;;;;;;;5057844;28;20039;-79
2020/12/22 03:54:33;;;;;;;0.63;0.60;;;;;;;;;;5058530;28;20023;-77
2020/12/22 03:56:59;;;;;;;0.45;0.45;;;;;;;;;;5077215;28;20042;-75
2020/12/22 03:59:25;;;;;;;0.43;0.43;;;;;;;;;;5059255;28;20028;-75
2020/12/22 04:01:51;;;;;;;0.52;0.52;;;;;;;;;;5077346;28;20071;-78
2020/12/22 04:04:19;;;;;;;0.38;0.38;;;;;;;;;;5059611;28;20028;-77
2020/12/22 04:06:45;;;;;;;0.50;0.50;;;;;;;;;;5059397;28;20032;-78
2020/12/22 04:09:11;;;;;;;0.82;0.60;;;;;;;;;;5076893;28;20090;-79
2020/12/22 04:11:37;;;;;;;0.45;0.45;;;;;;;;;;5059306;28;20036;-78
2020/12/22 04:14:03;;;;;;;0.70;0.63;;;;;;;;;;5058886;28;20024;-79
2020/12/22 04:16:29;;;;;;;0.47;0.47;;;;;;;;;;5058915;28;20028;-78
2020/12/22 04:18:55;;;;;;;0.90;0.60;;;;;;;;;;5059308;28;20348;-77
2020/12/22 04:21:21;;;;;;;0.40;0.40;;;;;;;;;;5058767;28;20032;-77
2020/12/22 04:23:47;;;;;;;0.50;0.50;;;;;;;;;;5059313;28;20024;-77
2020/12/22 04:26:13;;;;;;;0.63;0.50;;;;;;;;;;5058909;28;20130;-80
2020/12/22 04:28:39;;;;;;;0.85;0.65;;;;;;;;;;5076627;28;20107;-79
2020/12/22 04:31:05;;;;;;;0.63;0.60;;;;;;;;;;5058616;28;20043;-79
2020/12/22 04:33:31;;;;;;;0.38;0.38;;;;;;;;;;5059123;28;20425;-76
2020/12/22 04:35:57;;;;;;;1.27;0.63;;;;;;;;;;5058510;28;20071;-75
2020/12/22 04:38:23;;;;;;;0.50;0.50;;;;;;;;;;5058848;28;20032;-78
2020/12/22 04:40:49;;;;;;;0.30;0.30;;;;;;;;;;5059182;28;20047;-78
2020/12/22 04:43:16;;;;;;;0.52;0.52;;;;;;;;;;5076719;28;20035;-77
2020/12/22 04:45:42;;;;;;;0.50;0.50;;;;;;;;;;5058694;28;20043;-80
2020/12/22 04:48:09;;;;;;;0.45;0.45;;;;;;;;;;5058281;28;20036;-80
2020/12/22 04:50:35;;;;;;;0.40;0.40;;;;;;;;;;5058839;28;20036;-77
2020/12/22 04:53:01;;;;;;;0.30;0.30;;;;;;;;;;5058773;28;20054;-77
2020/12/22 04:55:27;;;;;;;0.50;0.50;;;;;;;;;;5058519;28;20123;-78
2020/12/22 04:57:55;;;;;;;0.40;0.40;;;;;;;;;;5058950;28;20097;-78
2020/12/22 05:00:22;;;;;;;0.52;0.50;;;;;;;;;;5075973;28;20360;-78
2020/12/22 05:02:50;;;;;;;0.45;0.40;;;;;;;;;;5067200;28;20012;-79
2020/12/22 05:05:16;;;;;;;0.50;0.40;;;;;;;;;;5077244;28;20295;-79
2020/12/22 05:07:42;;;;;;;0.45;0.45;;;;;;;;;;5077620;28;20131;-77
2020/12/22 05:10:09;;;;;;;0.70;0.70;;;;;;;;;;5078892;28;20051;-81
2020/12/22 05:12:37;;;;;;;0.40;0.40;;;;;;;;;;5079119;28;20032;-79
2020/12/22 05:15:04;;;;;;;0.40;0.40;;;;;;;;;;5102321;28;20024;-77
2020/12/22 05:17:30;;;;;;;0.63;0.63;;;;;;;;;;5112198;28;20039;-78
2020/12/22 05:19:57;;;;;;;0.45;0.40;;;;;;;;;;5097728;28;20024;-78
2020/12/22 05:22:23;;;;;;;0.45;0.45;;;;;;;;;;5094902;28;20024;-76
2020/12/22 05:24:50;;;;;;;0.80;0.65;;;;;;;;;;5094444;28;20028;-77
2020/12/22 05:27:20;;;;;;;0.40;0.40;;;;;;;;;;5095250;28;20023;-79
2020/12/22 05:29:46;;;;;;;1.20;0.85;;;;;;;;;;5088854;28;20063;-78
2020/12/22 05:32:12;;;;;;;0.60;0.45;;;;;;;;;;5091749;28;20032;-79
2020/12/22 05:34:38;;;;;;;0.40;0.40;;;;;;;;;;5087482;28;20028;-76
2020/12/22 05:37:08;;;;;;;0.30;0.30;;;;;;;;;;5078628;28;20067;-80
2020/12/22 05:39:38;;;;;;;0.75;0.52;;;;;;;;;;5078332;28;20063;-78
2020/12/22 05:42:16;;;;;;;0.28;0.25;;;;;;;;;;5078194;28;20077;-76
2020/12/22 05:44:52;;;;;;;0.45;0.45;;;;;;;;;;5078106;28;20028;-76
2020/12/22 05:47:19;;;;;;;0.40;0.40;;;;;;;;;;5078165;28;20067;-75
2020/12/22 05:49:52;;;;;;;0.63;0.52;;;;;;;;;;5077990;28;20032;-75
2020/12/22 05:52:20;;;;;;;0.40;0.40;;;;;;;;;;5095786;28;20395;-75
2020/12/22 05:54:47;;;;;;;0.57;0.57;;;;;;;;;;5069658;28;20033;-77
2020/12/22 05:57:13;;;;;;;0.38;0.35;;;;;;;;;;5057303;28;20036;-77
2020/12/22 05:59:39;;;;;;;0.47;0.30;;;;;;;;;;5056546;28;20021;-78
2020/12/22 06:02:05;;;;;;;0.60;0.50;;;;;;;;;;5057369;28;20266;-76
2020/12/22 06:04:31;;;;;;;0.40;0.40;;;;;;;;;;5064729;28;20432;-78
2020/12/22 06:06:57;;;;;;;0.40;0.40;;;;;;;;;;5074148;28;20052;-76
2020/12/22 06:09:23;;;;;;;0.38;0.38;;;;;;;;;;5066461;28;20131;-77
2020/12/22 06:11:49;;;;;;;0.40;0.40;;;;;;;;;;5085159;28;20026;-78
2020/12/22 06:14:24;;;;;;;0.30;0.30;;;;;;;;;;5066893;28;20351;-76
2020/12/22 06:16:50;;;;;;;0.50;0.50;;;;;;;;;;5083981;28;20604;-77
2020/12/22 06:19:16;;;;;;;0.40;0.40;;;;;;;;;;5066892;28;20043;-78
2020/12/22 06:21:42;;;;;;;0.40;0.40;;;;;;;;;;5083517;28;20444;-79
2020/12/22 06:24:12;;;;;;;0.32;0.32;;;;;;;;;;5065092;28;20474;-78
2020/12/22 06:26:38;;;;;;;0.60;0.50;;;;;;;;;;5060861;28;20031;-77
2020/12/22 06:29:13;;;;;;;0.40;0.40;;;;;;;;;;5067886;28;20040;-78
2020/12/22 06:31:39;;;;;;;0.30;0.30;;;;;;;;;;5084727;28;20027;-80
2020/12/22 06:34:23;;;;;;;2.00;1.15;;;;;;;;;;5084174;28;20218;-79
2020/12/22 06:36:56;;;;;;;0.50;0.50;;;;;;;;;;5066071;28;20025;-78
2020/12/22 06:39:39;;;;;;;0.22;0.22;;;;;;;;;;5082651;28;20024;-78
2020/12/22 06:42:05;;;;;;;0.40;0.40;;;;;;;;;;5067727;28;20036;-78
2020/12/22 06:44:31;;;;;;;0.40;0.40;;;;;;;;;;5068423;28;20028;-77
2020/12/22 06:46:58;;;;;;;0.40;0.40;;;;;;;;;;5079668;28;20321;-78
2020/12/22 06:49:42;;;;;;;0.30;0.30;;;;;;;;;;5086083;28;20348;-79
2020/12/22 06:52:27;;;;;;;0.40;0.40;;;;;;;;;;5065358;28;20029;-77
2020/12/22 06:54:53;;;;;;;0.40;0.40;;;;;;;;;;5065140;28;20068;-77
2020/12/22 06:57:38;;;;;;;0.47;0.35;;;;;;;;;;5067187;28;20028;-80
2020/12/22 07:00:04;;;;;;;0.30;0.30;;;;;;;;;;5065887;28;20028;-77
2020/12/22 07:02:31;;;;;;;0.32;0.30;;;;;;;;;;5058752;28;20036;-78
2020/12/22 07:04:58;;;;;;;0.30;0.30;;;;;;;;;;5079404;28;20019;-78
2020/12/22 07:07:24;;;;;;;0.45;0.40;;;;;;;;;;5092271;28;20025;-77
2020/12/22 07:09:59;;;;;;;0.32;0.32;;;;;;;;;;5081543;28;20161;-77
2020/12/22 07:12:26;;;;;;;0.65;0.32;;;;;;;;;;5071302;28;20052;-78
2020/12/22 07:14:52;;;;;;;0.30;0.30;;;;;;;;;;5076840;28;20035;-77
2020/12/22 07:17:21;;;;;;;0.75;0.50;;;;;;;;;;5077210;28;20031;-78
2020/12/22 07:19:47;;;;;;;;;;;;;;;;;;5075802;28;20435;-78
2020/12/22 07:22:14;;;;;;;0.80;0.80;;;;;;;;;;5064556;28;19912;-79
2020/12/22 07:24:40;;;;;;;0.63;0.30;;;;;;;;;;5086268;28;20145;-74
2020/12/22 07:27:07;;;;;;;0.40;0.40;;;;;;;;;;5062549;28;20036;-78
2020/12/22 07:29:37;;;;;;;1.42;0.68;;;;;;;;;;5066544;28;20427;-78
2020/12/22 07:32:04;;;;;;;0.55;0.40;;;;;;;;;;5066869;28;20032;-77
2020/12/22 07:34:30;;;;;;;0.50;0.50;;;;;;;;;;5067981;28;20024;-79
2020/12/22 07:37:09;;;;;;;0.38;0.35;;;;;;;;;;5069152;28;20024;-75
2020/12/22 07:39:35;;;;;;;;;;;;;;;;;;5068321;28;20359;-77
2020/12/22 07:42:14;;;;;;;0.32;0.32;;;;;;;;;;5085884;28;19919;-76
2020/12/22 07:44:40;;;;;;;;;;;;;;;;;;5068466;28;20035;-76
2020/12/22 07:47:08;;;;;;;1.05;0.50;;;;;;;;;;5084992;28;19912;-78
2020/12/22 07:49:35;;;;;;;0.40;0.40;;;;;;;;;;5065542;28;20040;-77
2020/12/22 07:52:01;;;;;;;0.40;0.30;;;;;;;;;;5085412;28;20363;-75
2020/12/22 07:54:27;;;;;;;0.70;0.52;;;;;;;;;;5080940;28;20024;-78
2020/12/22 07:56:56;;;;;;;0.30;0.30;;;;;;;;;;5066815;28;20024;-77
2020/12/22 07:59:23;;;;;;;0.40;0.40;;;;;;;;;;5081739;28;20093;-78
2020/12/22 08:01:53;;;;;;;0.47;0.35;;;;;;;;;;5082227;28;20025;-81
2020/12/22 08:04:19;;;;;;;;;;;;;;;;;;5061807;28;20055;-77
2020/12/22 08:06:55;;;;;;;0.40;0.40;;;;;;;;;;5080022;28;20284;-78
2020/12/22 08:09:22;;;;;;;0.45;0.40;;;;;;;;;;5062025;28;20093;-76
2020/12/22 08:11:48;;;;;;;0.60;0.60;;;;;;;;;;5084118;28;20035;-76
2020/12/22 08:14:15;;;;;;;0.43;0.43;;;;;;;;;;5062484;28;20029;-81
2020/12/22 08:16:41;;;;;;;0.40;0.38;;;;;;;;;;5057660;28;20039;-76
2020/12/22 08:19:07;;;;;;;0.90;0.30;;;;;;;;;;5057811;28;20020;-77
2020/12/22 08:21:33;;;;;;;0.73;0.43;;;;;;;;;;5063732;28;20025;-79
2020/12/22 08:24:00;;;;;;;0.45;0.30;;;;;;;;;;5057280;28;20324;-78
2020/12/22 08:26:26;;;;;;;0.25;0.25;;;;;;;;;;5060904;28;20028;-79
2020/12/22 08:28:52;;;;;;;0.60;0.35;;;;;;;;;;5061425;28;20123;-79
2020/12/22 08:31:21;;;;;;;1.05;0.30;;;;;;;;;;5065108;28;20062;-77
2020/12/22 08:33:50;;;;;;;0.30;0.30;;;;;;;;;;5079694;28;20043;-78
2020/12/22 08:36:17;;;;;;;0.40;0.35;;;;;;;;;;5069449;28;20021;-75
2020/12/22 08:38:43;;;;;;;0.77;0.60;;;;;;;;;;5078552;28;20032;-77
2020/12/22 08:41:27;;;;;;;0.68;0.60;;;;;;;;;;5061008;28;20029;-77
2020/12/22 08:43:53;;;;;;;0.30;0.30;;;;;;;;;;5060895;28;20033;-76
2020/12/22 08:46:20;;;;;;;1.75;0.73;;;;;;;;;;5062547;28;20407;-78
2020/12/22 08:48:46;;;;;;;0.90;0.30;;;;;;;;;;5062292;28;20054;-79
2020/12/22 08:51:23;;;;;;;0.60;0.45;;;;;;;;;;5083392;28;20081;-76
2020/12/22 08:53:51;;;;;;;0.88;0.40;;;;;;;;;;5079768;28;20062;-78
2020/12/22 08:56:17;;;;;;;1.65;0.50;;;;;;;;;;5086020;28;20024;-77
2020/12/22 08:58:56;;;;;;;0.35;0.30;;;;;;;;;;5093574;28;20036;-77
2020/12/22 09:01:23;;;;;;;0.40;0.40;;;;;;;;;;5064334;28;20052;-76
2020/12/22 09:03:53;;;;;;;0.70;0.43;;;;;;;;;;5064731;28;20032;-78
2020/12/22 09:06:20;;;;;;;0.45;0.40;;;;;;;;;;5079893;28;20079;-78
2020/12/22 09:08:46;;;;;;;0.40;0.40;;;;;;;;;;5061296;28;20036;-75
2020/12/22 09:11:19;;;;;;;0.47;0.43;;;;;;;;;;5063460;28;20442;-78
2020/12/22 09:13:45;;;;;;;0.38;0.38;;;;;;;;;;5067554;28;20528;-77
2020/12/22 09:16:11;;;;;;;0.70;0.43;;;;;;;;;;5067725;28;20096;-77
2020/12/22 09:18:37;;;;;;;0.98;0.50;;;;;;;;;;5075626;28;20028;-77
2020/12/22 09:21:07;;;;;;;0.65;0.57;;;;;;;;;;5080870;28;20085;-78
2020/12/22 09:23:43;;;;;;;0.50;0.40;;;;;;;;;;5060763;28;20028;-76
2020/12/22 09:26:10;;;;;;;0.50;0.40;;;;;;;;;;5065020;28;20036;-78
2020/12/22 09:28:36;;;;;;;0.73;0.38;;;;;;;;;;5064143;28;20384;-77
2020/12/22 09:31:02;;;;;;;0.40;0.40;;;;;;;;;;5061958;28;20051;-78
2020/12/22 09:33:28;;;;;;;0.55;0.40;;;;;;;;;;5067430;28;20363;-78
2020/12/22 09:35:54;;;;;;;0.60;0.50;;;;;;;;;;5066977;28;20020;-78
2020/12/22 09:38:19;;;;;;;1.05;0.70;;;;;;;;;;5087925;28;20100;-77
2020/12/22 09:40:45;;;;;;;1.27;0.60;;;;;;;;;;5061874;28;20039;-80
2020/12/22 09:43:11;;;;;;;0.98;0.55;;;;;;;;;;5063343;28;20029;-77
2020/12/22 09:45:37;;;;;;;0.68;0.50;;;;;;;;;;5065118;28;20082;-77
2020/12/22 09:48:03;;;;;;;0.65;0.50;;;;;;;;;;5068119;28;20451;-77
2020/12/22 09:50:29;;;;;;;0.32;0.32;;;;;;;;;;5061657;28;20048;-78
2020/12/22 09:52:55;;;;;;;0.50;0.50;;;;;;;;;;5077976;28;20332;-79
2020/12/22 09:55:21;;;;;;;0.40;0.40;;;;;;;;;;5061556;28;20179;-76
2020/12/22 09:57:47;;;;;;;0.93;0.60;;;;;;;;;;5066423;28;20028;-78
2020/12/22 10:00:13;;;;;;;0.63;0.60;;;;;;;;;;5062096;28;20058;-76
2020/12/22 10:02:39;;;;;;;1.38;0.60;;;;;;;;;;5062302;28;20028;-82
2020/12/22 10:05:05;;;;;;;1.17;0.65;;;;;;;;;;5081081;28;20040;-79
2020/12/22 10:07:32;;;;;;;0.65;0.50;;;;;;;;;;5067003;28;20166;-78
2020/12/22 10:09:58;;;;;;;0.80;0.60;;;;;;;;;;5065849;28;20036;-79
2020/12/22 10:12:24;;;;;;;1.13;0.60;;;;;;;;;;5080782;28;20024;-76
2020/12/22 10:14:50;;;;;;;1.42;0.60;;;;;;;;;;5077342;28;20093;-77
2020/12/22 10:17:16;;;;;;;0.57;0.57;;;;;;;;;;5080193;28;20035;-78
2020/12/22 10:19:42;;;;;;;1.05;0.60;;;;;;;;;;5068955;28;20031;-75
2020/12/22 10:22:08;;;;;;;1.13;0.68;;;;;;;;;;5070365;28;20082;-77
2020/12/22 10:24:34;;;;;;;1.23;0.60;;;;;;;;;;5069233;28;20040;-79
2020/12/22 10:27:00;;;;;;;0.50;0.50;;;;;;;;;;5087121;28;20021;-78
2020/12/22 10:29:26;;;;;;;0.75;0.70;;;;;;;;;;5086004;28;20115;-78
2020/12/22 10:31:54;;;;;;;1.55;0.55;;;;;;;;;;5065008;28;20020;-78
2020/12/22 10:34:20;;;;;;;2.17;0.60;;;;;;;;;;5083048;28;20074;-77
2020/12/22 10:36:46;;;;;;;2.10;0.65;;;;;;;;;;5069510;28;20020;-79
2020/12/22 10:39:12;;;;;;;0.75;0.70;;;;;;;;;;5089055;28;20035;-78
2020/12/22 10:41:38;;;;;;;1.25;0.60;;;;;;;;;;5063956;28;20107;-76
2020/12/22 10:44:04;;;;;;;1.17;0.68;;;;;;;;;;5065163;28;20343;-78
2020/12/22 10:46:31;;;;;;;0.60;0.60;;;;;;;;;;5069356;28;20039;-76
2020/12/22 10:48:57;;;;;;;1.08;0.60;;;;;;;;;;5076393;28;20052;-75
2020/12/22 10:51:23;;;;;;;1.02;0.93;;;;;;;;;;5072558;28;20063;-77
2020/12/22 10:53:49;;;;;;;2.22;0.90;;;;;;;;;;5072455;28;20120;-79
2020/12/22 10:56:17;;;;;;;2.13;0.75;;;;;;;;;;5060248;28;20048;-77
2020/12/22 10:58:43;;;;;;;0.85;0.70;;;;;;;;;;5071275;28;20034;-79
2020/12/22 11:01:09;;;;;;;1.17;0.70;;;;;;;;;;5064182;28;20110;-77
2020/12/22 11:03:35;;;;;;;2.03;0.80;;;;;;;;;;5065177;28;20024;-76
2020/12/22 11:06:09;;;;;;;1.48;0.73;;;;;;;;;;5063028;28;20062;-81
2020/12/22 11:08:36;;;;;;;1.02;0.60;;;;;;;;;;5073928;28;20119;-76
2020/12/22 11:11:02;;;;;;;1.48;0.90;;;;;;;;;;5064056;28;20077;-77
2020/12/22 11:13:28;;;;;;;1.23;0.82;;;;;;;;;;5066818;28;20074;-78
2020/12/22 11:15:54;;;;;;;1.45;0.77;;;;;;;;;;5090200;28;20067;-77
2020/12/22 11:18:20;;;;;;;1.58;0.95;;;;;;;;;;5056508;28;20335;-76
2020/12/22 11:20:46;;;;;;;1.35;1.00;;;;;;;;;;5058461;28;20041;-79
2020/12/22 11:23:12;;;;;;;1.30;0.82;;;;;;;;;;5089157;28;20024;-79
2020/12/22 11:25:38;;;;;;;1.50;0.90;;;;;;;;;;5067852;28;20027;-75
2020/12/22 11:28:05;;;;;;;1.95;0.88;;;;;;;;;;5067301;28;20040;-78
2020/12/22 11:30:31;;;;;;;0.77;0.60;;;;;;;;;;5064610;28;20025;-75
2020/12/22 11:32:57;;;;;;;0.90;0.77;;;;;;;;;;5087679;28;20103;-79
2020/12/22 11:35:23;;;;;;;1.10;1.00;;;;;;;;;;5065020;28;20024;-78
2020/12/22 11:37:49;;;;;;;2.20;0.98;;;;;;;;;;5078612;28;20050;-80
2020/12/22 11:40:15;;;;;;;1.30;0.73;;;;;;;;;;5057597;28;20064;-78
2020/12/22 11:42:41;;;;;;;1.77;0.90;;;;;;;;;;5084367;28;20240;-77
2020/12/22 11:45:07;;;;;;;1.27;0.70;;;;;;;;;;5080795;28;20040;-76
2020/12/22 11:47:34;;;;;;;3.25;0.82;;;;;;;;;;5080480;28;20025;-77
2020/12/22 11:50:00;;;;;;;1.60;0.88;;;;;;;;;;5062837;28;20028;-78
2020/12/22 11:52:26;;;;;;;1.60;0.65;;;;;;;;;;5065141;28;20024;-76
2020/12/22 11:54:53;;;;;;;1.90;0.80;;;;;;;;;;5065575;28;20316;-78
2020/12/22 11:57:18;;;;;;;2.50;0.70;;;;;;;;;;5064065;28;20446;-78
2020/12/22 11:59:44;;;;;;;1.73;1.10;;;;;;;;;;5083218;28;20057;-78
2020/12/22 12:02:10;;;;;;;2.10;1.05;;;;;;;;;;5083528;28;20033;-77
2020/12/22 12:04:40;;;;;;;1.50;0.85;;;;;;;;;;5067363;28;20031;-78
2020/12/22 12:07:06;;;;;;;2.63;1.30;;;;;;;;;;5067730;28;20127;-77
2020/12/22 12:09:32;;;;;;;1.15;0.88;;;;;;;;;;5063900;28;20134;-79
2020/12/22 12:11:58;;;;;;;1.90;1.10;;;;;;;;;;5071543;28;20040;-79
2020/12/22 12:14:25;;;;;;;2.47;0.93;;;;;;;;;;5088525;28;20024;-75
2020/12/22 12:16:51;;;;;;;2.20;1.15;;;;;;;;;;5087522;28;20031;-77
2020/12/22 12:19:21;;;;;;;1.83;0.68;;;;;;;;;;5066202;28;20426;-80
2020/12/22 12:21:46;;;;;;;;;;;;;;;;;;5069440;28;20033;-78
2020/12/22 12:24:13;;;;;;;3.20;1.80;;;;;;;;;;5070866;28;20307;-78
2020/12/22 12:26:39;;;;;;;1.88;1.00;;;;;;;;;;5069211;28;20324;-78
2020/12/22 12:29:05;;;;;;;1.30;0.93;;;;;;;;;;5074361;28;20035;-77
2020/12/22 12:31:32;;;;;;;2.25;1.00;;;;;;;;;;5060579;28;20024;-78
2020/12/22 12:33:58;;;;;;;1.85;1.15;;;;;;;;;;5070244;28;20454;-75
2020/12/22 12:36:26;;;;;;;1.45;1.00;;;;;;;;;;5075323;28;20393;-77
2020/12/22 12:38:52;;;;;;;1.80;0.95;;;;;;;;;;5099377;28;20103;-79
2020/12/22 12:41:18;;;;;;;1.00;0.88;;;;;;;;;;5091479;28;20035;-78
2020/12/22 12:43:44;;;;;;;2.53;1.30;;;;;;;;;;5074086;28;20020;-78
2020/12/22 12:46:10;;;;;;;1.88;1.10;;;;;;;;;;5090183;28;20036;-78
2020/12/22 12:48:37;;;;;;;2.28;0.98;;;;;;;;;;5062973;28;20028;-79
2020/12/22 12:51:07;;;;;;;2.75;0.93;;;;;;;;;;5065902;28;20134;-77
2020/12/22 12:53:34;;;;;;;2.55;1.45;;;;;;;;;;5083220;28;20307;-77
2020/12/22 12:56:00;;;;;;;2.40;1.30;;;;;;;;;;5066571;28;20028;-76
2020/12/22 12:58:26;;;;;;;2.78;1.38;;;;;;;;;;5063195;28;20035;-78
2020/12/22 13:00:52;;;;;;;2.50;1.40;;;;;;;;;;5063944;28;20051;-78
2020/12/22 13:03:19;;;;;;;1.83;1.13;;;;;;;;;;5062872;28;20028;-77
2020/12/22 13:05:45;;;;;;;2.58;1.42;;;;;;;;;;5060319;28;20404;-79
2020/12/22 13:08:11;;;;;;;2.92;1.63;;;;;;;;;;5068695;28;20040;-78
2020/12/22 13:10:37;;;;;;;3.50;1.48;;;;;;;;;;5069446;28;20025;-78
2020/12/22 13:13:03;;;;;;;2.35;1.52;;;;;;;;;;5068235;28;20039;-78
2020/12/22 13:15:29;;;;;;;2.63;1.40;;;;;;;;;;5074721;28;20046;-77
2020/12/22 13:17:55;;;;;;;3.53;1.60;;;;;;;;;;5064888;28;20075;-78
2020/12/22 13:20:21;;;;;;;2.42;1.45;;;;;;;;;;5072367;28;20415;-75
2020/12/22 13:22:48;;;;;;;2.92;1.38;;;;;;;;;;5085993;28;20060;-78
2020/12/22 13:25:14;;;;;;;2.78;1.67;;;;;;;;;;5087593;28;20365;-79
2020/12/22 13:27:40;;;;;;;2.03;1.38;;;;;;;;;;5064864;28;20051;-78
2020/12/22 13:30:06;;;;;;;3.25;1.55;;;;;;;;;;5089188;28;20072;-77
2020/12/22 13:32:32;;;;;;;3.35;1.90;;;;;;;;;;5083980;28;20122;-76
2020/12/22 13:34:58;;;;;;;2.17;1.50;;;;;;;;;;5058766;28;20086;-76
2020/12/22 13:37:24;;;;;;;2.00;1.58;;;;;;;;;;5076396;28;20108;-77
2020/12/22 13:39:50;;;;;;;2.10;1.25;;;;;;;;;;5091435;28;20385;-77
2020/12/22 13:42:16;;;;;;;2.60;1.45;;;;;;;;;;5070129;28;20074;-78
2020/12/22 13:44:42;;;;;;;3.15;1.40;;;;;;;;;;5081569;28;20103;-79
2020/12/22 13:47:08;;;;;;;2.08;1.35;;;;;;;;;;5066170;28;20143;-75
2020/12/22 13:49:34;;;;;;;2.25;1.45;;;;;;;;;;5064366;28;20025;-77
2020/12/22 13:52:00;;;;;;;1.90;1.15;;;;;;;;;;5060085;28;20028;-79
2020/12/22 13:54:26;;;;;;;2.72;1.35;;;;;;;;;;5062169;28;20074;-78
2020/12/22 13:56:52;;;;;;;3.67;1.60;;;;;;;;;;5062728;28;20020;-79
2020/12/22 13:59:18;;;;;;;3.42;1.77;;;;;;;;;;5064150;28;20329;-77
2020/12/22 14:01:45;;;;;;;2.88;1.60;;;;;;;;;;5058822;28;20027;-75
2020/12/22 14:04:11;;;;;;;2.72;1.50;;;;;;;;;;5063553;28;20028;-79
2020/12/22 14:06:37;;;;;;;6.30;2.25;;;;;;;;;;5081182;28;20035;-78
2020/12/22 14:09:03;;;;;;;5.53;2.90;;;;;;;;;;5068752;28;20061;-77
2020/12/22 14:11:29;;;;;;;10.32;3.25;;;;;;;;;;5067724;28;20422;-79
2020/12/22 14:13:55;;;;;;;7.30;2.83;;;;;;;;;;5065578;28;20029;-82
2020/12/22 14:16:21;;;;;;;5.13;2.95;;;;;;;;;;5067392;28;20024;-82
2020/12/22 14:18:48;;;;;;;10.43;3.30;;;;;;;;;;5066990;28;20040;-78
2020/12/22 14:21:18;;;;;;;6.00;2.30;;;;;;;;;;5084464;28;20359;-79
2020/12/22 14:23:44;;;;;;;12.27;3.42;;;;;;;;;;5085897;28;20032;-81
2020/12/22 14:26:10;;;;;;;7.85;2.65;;;;;;;;;;5091516;28;20028;-81
2020/12/22 14:28:37;;;;;;;4.15;2.28;;;;;;;;;;5086651;28;20036;-80
2020/12/22 14:31:03;;;;;;;9.55;2.38;;;;;;;;;;5070874;28;20024;-83
2020/12/22 14:33:29;;;;;;;5.22;2.45;;;;;;;;;;5062555;28;20051;-78
2020/12/22 14:35:55;;;;;;;9.90;2.78;;;;;;;;;;5065472;28;20085;-83
2020/12/22 14:38:22;;;;;;;13.10;3.00;;;;;;;;;;5061307;28;20025;-82
2020/12/22 14:40:49;;;;;;;5.20;2.42;;;;;;;;;;5063554;28;20032;-83
2020/12/22 14:43:16;;;;;;;5.07;3.20;;;;;;;;;;5063706;28;20036;-83
2020/12/22 14:45:42;;;;;;;7.13;3.17;;;;;;;;;;5066019;28;20060;-85
2020/12/22 14:48:08;;;;;;;7.65;2.47;;;;;;;;;;5059922;28;20467;-82